< Typhoon 195602 1956 Season Typhoon 195604 >
Typhoon 195603 (THELMA)
General InformationTrack Information on Google Maps || NewsDisaster Info.ResourceGoogle EarthGE AnimationAtom FeedGeoJSON
Detalied Best Track (Time Zone = UTC)
Year Month Day Hour Lat. Long. Pressure (hPa) Wind (kt) Class Image Chart
1956 4 16 00 5.8 147.0 1004 0 2 -- Chart
1956 4 16 06 6.0 145.7 1000 0 9 -- Chart
1956 4 16 12 6.6 144.5 1000 0 9 -- Chart
1956 4 16 18 7.2 143.2 1000 0 9 -- Chart
1956 4 17 00 8.0 141.9 995 0 9 -- Chart
1956 4 17 06 9.0 140.8 990 0 9 -- Chart
1956 4 17 12 9.6 139.5 990 0 9 -- Chart
1956 4 17 18 10.2 138.2 990 0 9 -- Chart
1956 4 18 00 10.8 136.7 975 0 9 -- Chart
1956 4 18 06 11.2 135.6 970 0 9 -- Chart
1956 4 18 12 11.3 134.7 970 0 9 -- Chart
1956 4 18 18 11.2 134.1 970 0 9 -- Chart
1956 4 19 00 11.4 133.2 945 0 9 -- Chart
1956 4 19 06 12.0 132.0 940 0 9 -- Chart
1956 4 19 12 12.1 131.1 940 0 9 -- Chart
1956 4 19 18 12.1 130.0 940 0 9 -- Chart
1956 4 20 00 12.7 129.0 940 0 9 -- Chart
1956 4 20 06 13.9 127.4 935 0 9 -- Chart
1956 4 20 12 14.1 126.4 940 0 9 -- Chart
1956 4 20 18 14.7 125.0 940 0 9 -- Chart
1956 4 21 00 15.2 123.7 945 0 9 -- Chart
1956 4 21 06 15.8 122.6 950 0 9 -- Chart
1956 4 21 12 16.5 121.5 965 0 9 -- Chart
1956 4 21 18 17.2 120.3 985 0 9 -- Chart
1956 4 22 00 18.0 119.3 995 0 9 -- Chart
1956 4 22 06 18.8 118.8 995 0 9 -- Chart
1956 4 22 12 19.7 119.0 995 0 9 -- Chart
1956 4 22 18 20.5 119.3 990 0 9 -- Chart
1956 4 23 00 21.6 120.3 990 0 9 -- Chart
1956 4 23 06 22.0 121.5 992 0 9 -- Chart
1956 4 23 12 22.6 122.9 992 0 9 -- Chart
1956 4 23 18 23.9 123.9 992 0 9 -- Chart
1956 4 24 00 24.8 124.9 996 0 9 -- Chart
1956 4 24 06 25.8 126.0 997 0 9 -- Chart
1956 4 24 12 27.2 127.0 997 0 9 -- Chart
1956 4 24 18 30.0 128.5 997 0 9 -- Chart
1956 4 25 00 31.5 131.5 998 0 2 -- Chart
Japan Meteorological Agency Best Track Data | Correction Date : 1989-06-01
< Typhoon 195602 1956 Season Typhoon 195604 >

Help